Aérodrome :
LOGIN :

S'inscrire | Disclaimer

   EN    FR    IT 

 










Légende :    VFR   VFR Marginal   IFR   IFR Intensif   IFR Très Intensif
Visi : 
Plafond : 
>= 8 km
>= 3000ft
5 à 8 km
1000 à 3000 ft
1500m à 5 km
500 à 1000 ft
800 à 1500m
200 à 500 ft
< 800m
< 200 ft
Symboles :   Orages  Brouillard  Fortes neiges  Fortes précipitations  Vent > 20 kt
SIGMETs :   Divers  Orages  Givrage  Turbulence  Onde Orograph.  Cendres Volcan.







- Altitude de l'aérodrome : 348 ft
- Code IATA : LDV
- Voir les cartes d'approche


LFRJ - Landivisiau

DERNIER METAR :
  • 202100Z AUTO 30016KT 8000 -RADZ OVC006 11/11 Q1013

METARs EXPIRÉS :
  • 202030Z AUTO 31019G30KT 6000 DZ BKN006 BKN011 OVC017 11/11 Q1013
  • 202000Z AUTO 30019KT 8000 DZ SCT009 BKN020 BKN026 11/10 Q1012
  • 201930Z AUTO 30024G35KT 7000 DZ BKN007 OVC012 11/10 Q1012
  • 201900Z AUTO 30021G37KT 9999 OVC007 11/11 Q1011
  • 201830Z AUTO 29021KT 9999 BKN007 OVC013 11/11 Q1011
  • 201800Z AUTO 29021G32KT 9999 BKN007 OVC011 11/11 Q1011

Prévision TAF périmée.
Pas de NOTAMs connus pour ce terrain.
1 SIGMET publié pour la FIR Brest (LFRR) :
 
Turbulence forte
LFRR SIGMET 5 VALID 201800/202200 LFPW
LFRR BREST FIR/UIR SEV TURB FCST SE OF LINE N4615 W00130 - N4415 W00445 SFC/FL040 STNR NC=



MET'MAP, la Météo Aéronautique d'un coup d'oeil ! - Copyright ORBIFLY Décembre 2007 - Disclaimer

ORBIFLY MET'MAP TEAM :

Programmation & Développement : Alexandra Zaïnal
Conception & Développement : Baudouin d'Aumeries
Co-Programmation & Développement : Marc-Olivier Méhu
Soutien technique & logistique : Manuel Goepfert

Contact : metmap@orbifly.com




SOURCES & CREDITS :

   NOAA